Time;durP1;ratioP1;P1;durP2;ratioP2;P2;SDS_P1;SDS_P2;PMS_P1;PMS_P2;Temp;Humidity;BMP_temperature;BMP_pressure;BME280_temperature;BME280_humidity;BME280_pressure;Samples;Min_cycle;Max_cycle;Signal;HPM_P1;HPM_P2
2023/05/28 00:01:46;;;;;;;;;;;;;;;8.36;59.07;102165.86;107654;1256;71449;-83
2023/05/28 00:04:13;;;;;;;;;;;;;;;8.34;59.19;102163.13;107740;1256;124193;-83
2023/05/28 00:06:48;;;;;;;;;;;;;;;8.31;59.16;102162.23;107449;1256;61211;-83
2023/05/28 00:09:16;;;;;;;;;;;;;;;8.28;59.27;102161.55;107406;1257;123897;-83
2023/05/28 00:11:44;;;;;;;;;;;;;;;8.26;59.35;102156.00;107628;1256;67777;-83
2023/05/28 00:14:12;;;;;;;;;;;;;;;8.23;59.36;102155.34;107557;1256;71395;-83
2023/05/28 00:16:40;;;;;;;;;;;;;;;8.21;59.42;102153.63;107307;1256;124282;-83
2023/05/28 00:19:10;;;;;;;;;;;;;;;8.18;59.55;102148.59;107362;1256;60655;-83
2023/05/28 00:21:40;;;;;;;;;;;;;;;8.16;59.57;102147.96;107518;1256;124514;-83
2023/05/28 00:24:07;;;;;;;;;;;;;;;8.14;59.63;102145.23;107831;1256;65849;-83
2023/05/28 00:26:34;;;;;;;;;;;;;;;8.13;59.67;102147.74;107304;1256;71376;-83
2023/05/28 00:29:07;;;;;;;;;;;;;;;8.11;59.67;102152.39;107192;1257;123782;-84
2023/05/28 00:31:36;;;;;;;;;;;;;;;8.09;59.75;102152.96;107381;1256;61321;-83
2023/05/28 00:34:04;;;;;;;;;;;;;;;8.07;59.80;102150.20;107426;1256;123705;-83
2023/05/28 00:36:33;;;;;;;;;;;;;;;8.04;59.85;102150.90;107368;1258;67062;-84
2023/05/28 00:39:04;;;;;;;;;;;;;;;8.02;59.86;102146.77;107466;1256;72688;-84
2023/05/28 00:41:35;;;;;;;;;;;;;;;7.99;59.87;102145.02;107545;1256;61436;-83
2023/05/28 00:44:03;;;;;;;;;;;;;;;7.96;59.86;102141.58;107333;1257;60550;-83
2023/05/28 00:46:30;;;;;;;;;;;;;;;7.95;59.92;102141.15;107395;1256;123806;-83
2023/05/28 00:48:59;;;;;;;;;;;;;;;7.93;59.86;102143.48;107196;1256;67311;-83
2023/05/28 00:51:28;;;;;;;;;;;;;;;7.91;59.80;102142.12;107249;1256;123954;-83
2023/05/28 00:53:58;;;;;;;;;;;;;;;7.89;59.96;102143.95;107351;1259;61253;-83
2023/05/28 00:56:26;;;;;;;;;;;;;;;7.88;59.87;102140.37;107183;1256;60117;-83
2023/05/28 00:59:01;;;;;;;;;;;;;;;7.86;59.99;102141.98;107280;1259;123748;-83
2023/05/28 01:01:29;;;;;;;;;;;;;;;7.84;59.96;102142.41;107253;1256;65892;-83
2023/05/28 01:03:56;;;;;;;;;;;;;;;7.84;59.96;102142.23;107147;1257;71837;-83
2023/05/28 01:06:23;;;;;;;;;;;;;;;7.83;59.88;102138.34;107109;1256;61392;-83
2023/05/28 01:08:56;;;;;;;;;;;;;;;7.80;59.94;102133.12;107244;1259;61250;-83
2023/05/28 01:11:26;;;;;;;;;;;;;;;7.81;59.87;102134.40;107227;1256;123621;-83
2023/05/28 01:13:53;;;;;;;;;;;;;;;7.80;59.87;102133.45;107296;1256;65774;-83
2023/05/28 01:16:21;;;;;;;;;;;;;;;7.80;59.82;102132.05;107127;1256;123915;-83
2023/05/28 01:18:56;;;;;;;;;;;;;;;7.79;59.88;102133.41;107357;1256;61707;-83
2023/05/28 01:21:23;;;;;;;;;;;;;;;7.78;59.86;102129.67;107335;1256;124182;-83
2023/05/28 01:23:52;;;;;;;;;;;;;;;7.76;59.83;102125.55;107415;1256;74453;-83
2023/05/28 01:26:19;;;;;;;;;;;;;;;7.74;59.90;102118.96;107280;1256;67783;-83
2023/05/28 01:28:48;;;;;;;;;;;;;;;7.74;59.82;102119.65;107197;1256;124470;-83
2023/05/28 01:31:15;;;;;;;;;;;;;;;7.73;59.77;102113.83;107330;1256;60253;-83
2023/05/28 01:33:43;;;;;;;;;;;;;;;7.72;59.77;102112.18;107335;1256;124225;-83
2023/05/28 01:36:29;;;;;;;;;;;;;;;7.72;59.81;102107.27;107440;1256;74800;-83
2023/05/28 01:38:58;;;;;;;;;;;;;;;7.71;59.82;102105.30;107327;1256;65907;-83
2023/05/28 01:41:26;;;;;;;;;;;;;;;7.71;59.84;102103.20;106981;1256;124044;-83
2023/05/28 01:43:54;;;;;;;;;;;;;;;7.69;59.85;102105.73;107235;1259;59680;-83
2023/05/28 01:46:21;;;;;;;;;;;;;;;7.68;59.98;102105.16;107164;1256;124222;-83
2023/05/28 01:48:48;;;;;;;;;;;;;;;7.68;60.00;102106.70;107272;1256;72813;-83
2023/05/28 01:51:17;;;;;;;;;;;;;;;7.67;59.94;102109.08;107091;1256;124075;-84
2023/05/28 01:53:44;;;;;;;;;;;;;;;7.65;59.99;102108.95;107713;1256;71182;-83
2023/05/28 01:56:11;;;;;;;;;;;;;;;7.63;60.06;102111.32;107454;1256;61813;-83
2023/05/28 01:58:39;;;;;;;;;;;;;;;7.62;59.97;102108.99;107216;1256;137227;-83
2023/05/28 02:01:12;;;;;;;;;;;;;;;7.62;59.93;102108.23;107377;1260;75292;-83
2023/05/28 02:03:39;;;;;;;;;;;;;;;7.61;59.99;102106.45;107442;1256;123970;-83
2023/05/28 02:06:06;;;;;;;;;;;;;;;7.60;60.10;102105.71;107377;1256;72943;-83
2023/05/28 02:08:42;;;;;;;;;;;;;;;7.60;60.16;102103.27;107684;1256;61309;-83
2023/05/28 02:11:10;;;;;;;;;;;;;;;7.59;60.04;102098.16;107497;1256;124137;-83
2023/05/28 02:13:39;;;;;;;;;;;;;;;7.59;60.19;102095.20;107713;1256;73843;-83
2023/05/28 02:16:17;;;;;;;;;;;;;;;7.59;60.13;102096.23;107333;1256;124284;-83
2023/05/28 02:18:50;;;;;;;;;;;;;;;7.58;60.16;102094.47;107498;1256;71550;-83
2023/05/28 02:21:17;;;;;;;;;;;;;;;7.58;60.18;102092.55;107387;1256;124610;-83
2023/05/28 02:23:45;;;;;;;;;;;;;;;7.60;60.06;102091.56;107278;1256;61219;-83
2023/05/28 02:26:12;;;;;;;;;;;;;;;7.60;60.16;102089.65;107754;1256;75218;-83
2023/05/28 02:28:42;;;;;;;;;;;;;;;7.62;60.09;102089.56;107465;1256;123883;-83
2023/05/28 02:31:10;;;;;;;;;;;;;;;7.63;60.18;102084.23;107510;1256;71997;-83
2023/05/28 02:33:38;;;;;;;;;;;;;;;7.66;60.23;102081.98;107460;1256;124630;-83
2023/05/28 02:36:06;;;;;;;;;;;;;;;7.70;60.30;102079.91;107208;1256;59575;-83
2023/05/28 02:38:33;;;;;;;;;;;;;;;7.73;60.25;102078.54;107209;1256;74812;-82
2023/05/28 02:41:00;;;;;;;;;;;;;;;7.78;60.24;102079.31;107234;1256;123728;-83
2023/05/28 02:43:27;;;;;;;;;;;;;;;7.82;60.36;102078.69;107312;1256;72720;-83
2023/05/28 02:45:54;;;;;;;;;;;;;;;7.88;60.32;102080.08;107286;1256;124436;-83
2023/05/28 02:48:21;;;;;;;;;;;;;;;7.93;60.35;102080.38;107212;1256;61240;-83
2023/05/28 02:50:54;;;;;;;;;;;;;;;8.00;60.39;102081.27;107320;1257;74688;-83
2023/05/28 02:53:21;;;;;;;;;;;;;;;8.06;60.35;102084.13;107447;1256;123812;-83
2023/05/28 02:55:48;;;;;;;;;;;;;;;8.13;60.22;102083.09;107488;1256;71115;-83
2023/05/28 02:58:32;;;;;;;;;;;;;;;8.22;60.15;102084.23;107450;1262;123792;-83
2023/05/28 03:01:06;;;;;;;;;;;;;;;8.30;60.07;102082.42;107443;1256;62198;-83
2023/05/28 03:03:36;;;;;;;;;;;;;;;8.39;60.02;102083.15;107439;1256;124487;-83
2023/05/28 03:06:16;;;;;;;;;;;;;;;8.49;59.99;102078.45;107817;1256;66805;-83
2023/05/28 03:08:42;;;;;;;;;;;;;;;8.60;59.89;102077.47;108147;1256;71391;-83
2023/05/28 03:11:09;;;;;;;;;;;;;;;8.70;59.62;102078.55;107926;1256;123713;-83
2023/05/28 03:13:36;;;;;;;;;;;;;;;8.82;59.58;102074.61;107946;1256;60276;-83
2023/05/28 03:16:04;;;;;;;;;;;;;;;8.92;59.45;102068.88;107847;1256;123810;-83
2023/05/28 03:18:31;;;;;;;;;;;;;;;9.03;59.38;102069.27;107736;1256;66111;-83
2023/05/28 03:21:04;;;;;;;;;;;;;;;9.17;59.33;102069.45;107625;1256;71450;-83
2023/05/28 03:23:31;;;;;;;;;;;;;;;9.35;59.23;102066.67;107304;1256;123707;-83
2023/05/28 03:25:59;;;;;;;;;;;;;;;9.57;59.29;102063.75;107794;1256;60963;-83
2023/05/28 03:28:26;;;;;;;;;;;;;;;10.10;59.62;102061.95;107570;1256;124345;-83
2023/05/28 03:30:55;;;;;;;;;;;;;;;11.09;59.73;102057.04;107465;1256;67609;-83
2023/05/28 03:33:24;;;;;;;;;;;;;;;12.19;58.88;102051.59;107260;1256;124923;-83
2023/05/28 03:35:52;;;;;;;;;;;;;;;13.05;57.64;102046.55;107470;1256;61429;-83
2023/05/28 03:38:19;;;;;;;;;;;;;;;13.51;56.43;102042.33;107349;1256;61213;-83
2023/05/28 03:40:47;;;;;;;;;;;;;;;14.00;56.00;102039.33;107638;1256;126804;-83
2023/05/28 03:43:14;;;;;;;;;;;;;;;14.91;55.53;102037.08;107806;1256;66317;-83
2023/05/28 03:45:41;;;;;;;;;;;;;;;15.82;54.32;102032.37;107720;1256;124343;-83
2023/05/28 03:48:08;;;;;;;;;;;;;;;16.52;52.93;102028.66;107961;1256;59250;-83
2023/05/28 03:50:36;;;;;;;;;;;;;;;17.21;51.69;102030.05;107952;1256;59582;-83
2023/05/28 03:53:03;;;;;;;;;;;;;;;17.76;50.34;102023.16;107720;1256;124452;-83
2023/05/28 03:55:43;;;;;;;;;;;;;;;18.50;49.66;102023.52;107647;1256;67136;-83
2023/05/28 03:58:14;;;;;;;;;;;;;;;19.58;48.59;102022.35;107758;1256;124398;-83
2023/05/28 04:00:41;;;;;;;;;;;;;;;20.59;47.37;102025.48;107874;1256;61208;-83
2023/05/28 04:03:09;;;;;;;;;;;;;;;21.51;45.94;102025.88;107746;1256;124831;-84
2023/05/28 04:05:36;;;;;;;;;;;;;;;22.40;44.82;102024.48;107677;1256;73883;-83
2023/05/28 04:08:04;;;;;;;;;;;;;;;23.32;43.63;102024.18;107903;1256;65776;-84
2023/05/28 04:10:31;;;;;;;;;;;;;;;24.11;42.32;102021.88;107674;1256;124407;-82
2023/05/28 04:12:58;;;;;;;;;;;;;;;24.71;41.05;102026.38;107807;1260;60453;-82
2023/05/28 04:15:26;;;;;;;;;;;;;;;25.27;40.12;102022.52;107696;1256;124857;-83
2023/05/28 04:18:05;;;;;;;;;;;;;;;25.97;39.25;102018.45;107440;1256;73377;-92
2023/05/28 04:20:32;;;;;;;;;;;;;;;26.68;38.07;102017.93;107613;1256;67081;-92
2023/05/28 04:23:18;;;;;;;;;;;;;;;27.29;37.15;102013.83;107575;1256;124062;-91
2023/05/28 04:25:44;;;;;;;;;;;;;;;27.95;36.18;102009.98;107593;1256;60555;-83
2023/05/28 04:28:11;;;;;;;;;;;;;;;28.56;35.35;102011.13;107546;1256;124596;-83
2023/05/28 04:30:45;;;;;;;;;;;;;;;29.15;34.57;102003.68;107482;1256;74714;-83
2023/05/28 04:33:12;;;;;;;;;;;;;;;29.70;33.61;102002.40;107441;1256;124755;-83
2023/05/28 04:35:39;;;;;;;;;;;;;;;30.14;32.91;101999.73;107679;1256;62803;-82
2023/05/28 04:38:07;;;;;;;;;;;;;;;30.53;32.31;102001.89;107546;1256;61335;-83
2023/05/28 04:40:34;;;;;;;;;;;;;;;31.02;31.80;101999.42;107307;1256;124551;-82
2023/05/28 04:43:02;;;;;;;;;;;;;;;31.54;31.00;102002.71;107698;1259;64772;-83
2023/05/28 04:45:38;;;;;;;;;;;;;;;31.81;30.23;102006.07;107653;1256;124360;-83
2023/05/28 04:48:13;;;;;;;;;;;;;;;32.05;29.64;102004.84;107803;1256;64016;-83
2023/05/28 04:50:40;;;;;;;;;;;;;;;32.44;29.26;102004.13;107747;1256;59240;-83
2023/05/28 04:53:07;;;;;;;;;;;;;;;32.79;28.57;102002.14;107555;1257;124187;-83
2023/05/28 04:55:34;;;;;;;;;;;;;;;33.01;28.12;101997.44;107590;1257;64771;-83
2023/05/28 04:58:01;;;;;;;;;;;;;;;33.34;27.69;101996.32;107513;1256;124590;-83
2023/05/28 05:00:31;;;;;;;;;;;;;;;33.61;27.27;101996.41;107829;1256;65124;-83
2023/05/28 05:03:11;;;;;;;;;;;;;;;33.71;26.75;101996.08;107540;1256;61399;-93
2023/05/28 05:05:40;;;;;;;;;;;;;;;33.86;26.36;101995.25;107151;1259;60049;-93
2023/05/28 05:08:13;;;;;;;;;;;;;;;34.12;26.13;101989.15;107637;1256;66077;-93
2023/05/28 05:10:40;;;;;;;;;;;;;;;34.43;25.81;101995.11;107593;1256;124231;-93
2023/05/28 05:13:08;;;;;;;;;;;;;;;34.88;25.56;101993.31;107616;1255;72668;-92
2023/05/28 05:15:40;;;;;;;;;;;;;;;35.14;25.08;101995.08;107364;1256;124274;-92
2023/05/28 05:18:09;;;;;;;;;;;;;;;35.30;24.89;101999.98;107497;1256;61217;-93
2023/05/28 05:20:43;;;;;;;;;;;;;;;35.56;24.57;101994.59;107350;1258;73102;-93
2023/05/28 05:23:16;;;;;;;;;;;;;;;35.91;24.21;101996.44;107480;1257;124324;-92
2023/05/28 05:25:51;;;;;;;;;;;;;;;36.20;23.95;101993.55;107733;1256;64259;-92
2023/05/28 05:28:19;;;;;;;;;;;;;;;36.30;23.55;101993.52;107405;1256;124403;-92
2023/05/28 05:30:49;;;;;;;;;;;;;;;36.34;23.18;101991.40;107517;1257;61125;-92
2023/05/28 05:33:16;;;;;;;;;;;;;;;36.39;23.07;101986.48;107270;1256;124284;-92
2023/05/28 05:35:47;;;;;;;;;;;;;;;36.30;22.54;101985.08;107494;1257;61073;-95
2023/05/28 05:38:26;;;;;;;;;;;;;;;35.05;22.21;101981.99;107348;1256;62552;-93
2023/05/28 05:40:53;;;;;;;;;;;;;;;32.96;22.43;101983.71;107367;1256;124175;-92
2023/05/28 05:43:39;;;;;;;;;;;;;;;30.99;22.97;101986.75;107633;1256;60293;-91
2023/05/28 05:46:14;;;;;;;;;;;;;;;29.09;23.84;101984.69;107411;1256;124163;-91
2023/05/28 05:48:41;;;;;;;;;;;;;;;27.76;24.65;101985.73;107565;1256;67390;-92
2023/05/28 05:51:16;;;;;;;;;;;;;;;26.73;25.20;101984.83;107564;1256;71440;-94
2023/05/28 05:54:02;;;;;;;;;;;;;;;25.71;26.04;101980.80;107347;1258;60464;-94
2023/05/28 05:56:32;;;;;;;;;;;;;;;24.83;26.67;101984.55;107397;1258;61155;-93
2023/05/28 05:59:14;;;;;;;;;;;;;;;24.18;27.10;101981.09;107137;1258;124196;-94
2023/05/28 06:01:49;;;;;;;;;;;;;;;23.63;27.77;101980.58;107135;1258;66768;-94
2023/05/28 06:04:17;;;;;;;;;;;;;;;23.18;28.30;101977.75;107446;1256;124373;-94
2023/05/28 06:06:46;;;;;;;;;;;;;;;22.78;28.69;101977.80;107700;1256;60514;-93
2023/05/28 06:09:25;;;;;;;;;;;;;;;22.41;29.06;101976.93;107338;1257;61543;-93
2023/05/28 06:12:01;;;;;;;;;;;;;;;22.06;29.41;101975.42;107321;1258;72168;-93
2023/05/28 06:15:00;;;;;;;;;;;;;;;21.78;29.75;101980.69;107480;1256;65885;-94
2023/05/28 06:17:28;;;;;;;;;;;;;;;21.50;30.19;101977.85;107468;1257;124257;-93
2023/05/28 06:19:56;;;;;;;;;;;;;;;21.30;30.59;101982.30;107374;1260;60396;-93
2023/05/28 06:22:37;;;;;;;;;;;;;;;21.15;30.84;101981.21;107262;1256;124270;-92
2023/05/28 06:25:12;;;;;;;;;;;;;;;21.01;31.29;101978.35;107416;1257;73399;-93
2023/05/28 06:27:40;;;;;;;;;;;;;;;20.87;31.57;101972.79;107546;1256;124967;-84
2023/05/28 06:30:07;;;;;;;;;;;;;;;20.74;31.68;101974.19;108278;1255;71293;-93
2023/05/28 06:32:35;;;;;;;;;;;;;;;20.64;31.92;101972.20;107312;1260;61249;-84
2023/05/28 06:35:03;;;;;;;;;;;;;;;20.59;31.92;101971.64;108276;1256;124111;-84
2023/05/28 06:37:42;;;;;;;;;;;;;;;20.55;32.12;101973.40;107733;1260;74980;-93
2023/05/28 06:40:19;;;;;;;;;;;;;;;20.48;32.36;101974.44;107168;1255;124508;-93
2023/05/28 06:42:51;;;;;;;;;;;;;;;20.44;32.53;101967.64;107319;1255;70481;-93
2023/05/28 06:45:25;;;;;;;;;;;;;;;20.40;32.47;101967.46;107596;1256;61152;-94
2023/05/28 06:47:52;;;;;;;;;;;;;;;20.36;32.51;101964.23;107146;1256;124253;-84
2023/05/28 06:50:19;;;;;;;;;;;;;;;20.36;32.49;101965.48;107487;1257;75479;-84
2023/05/28 06:53:02;;;;;;;;;;;;;;;20.36;32.64;101962.82;107348;1260;124151;-84
2023/05/28 06:55:35;;;;;;;;;;;;;;;20.34;32.49;101961.37;107272;1256;71511;-84
2023/05/28 06:58:26;;;;;;;;;;;;;;;20.34;32.61;101961.00;107052;1259;124408;-85
2023/05/28 07:00:54;;;;;;;;;;;;;;;20.30;32.62;101953.68;106962;1259;61388;-84
2023/05/28 07:03:22;;;;;;;;;;;;;;;20.31;32.64;101957.61;107338;1259;74831;-85
2023/05/28 07:05:55;;;;;;;;;;;;;;;20.32;32.53;101956.38;107388;1259;124641;-84
2023/05/28 07:08:22;;;;;;;;;;;;;;;20.28;32.55;101959.39;107387;1259;71115;-85
2023/05/28 07:10:49;;;;;;;;;;;;;;;20.28;32.50;101961.89;107284;1264;124329;-85
2023/05/28 07:13:17;;;;;;;;;;;;;;;20.26;32.22;101962.23;107443;1263;61464;-84
2023/05/28 07:15:44;;;;;;;;;;;;;;;20.24;32.30;101962.22;107110;1259;124630;-85
2023/05/28 07:18:13;;;;;;;;;;;;;;;20.25;32.51;101961.86;107166;1259;66805;-84
2023/05/28 07:20:40;;;;;;;;;;;;;;;20.32;32.76;101959.05;107431;1259;71695;-85
2023/05/28 07:23:09;;;;;;;;;;;;;;;20.38;32.88;101953.02;107292;1259;124352;-84
2023/05/28 07:25:59;;;;;;;;;;;;;;;20.41;32.67;101958.54;107563;1259;60922;-84
2023/05/28 07:28:39;;;;;;;;;;;;;;;20.42;32.42;101955.88;107338;1259;124277;-84
2023/05/28 07:31:06;;;;;;;;;;;;;;;20.47;32.47;101956.96;108292;1263;67084;-84
2023/05/28 07:33:35;;;;;;;;;;;;;;;20.50;32.35;101956.27;107541;1260;124417;-84
2023/05/28 07:36:07;;;;;;;;;;;;;;;20.52;32.19;101953.94;107236;1262;59598;-84
2023/05/28 07:38:34;;;;;;;;;;;;;;;20.50;32.02;101953.04;107535;1259;61358;-84
2023/05/28 07:41:02;;;;;;;;;;;;;;;20.44;31.98;101949.45;107267;1256;124392;-84
2023/05/28 07:43:29;;;;;;;;;;;;;;;20.42;32.09;101944.83;107508;1256;67104;-84
2023/05/28 07:45:56;;;;;;;;;;;;;;;20.46;32.11;101946.27;107253;1256;124732;-84
2023/05/28 07:48:23;;;;;;;;;;;;;;;20.47;32.13;101945.20;107706;1256;60413;-84
2023/05/28 07:50:51;;;;;;;;;;;;;;;20.46;32.10;101947.15;107771;1256;61269;-84
2023/05/28 07:53:25;;;;;;;;;;;;;;;20.46;32.24;101943.77;108410;1256;124656;-84
2023/05/28 07:55:55;;;;;;;;;;;;;;;20.51;32.27;101941.45;107709;1256;67379;-84
2023/05/28 07:58:28;;;;;;;;;;;;;;;20.52;32.17;101938.62;107411;1256;124643;-84
2023/05/28 08:01:08;;;;;;;;;;;;;;;20.53;32.12;101928.27;107569;1257;61322;-84
2023/05/28 08:04:37;;;;;;;;;;;;;;;20.55;32.13;101927.92;107758;1257;124483;-85
2023/05/28 08:06:43;;;;;;;;;;;;;;;20.58;32.03;101918.48;107423;1259;74871;-84
2023/05/28 08:09:15;;;;;;;;;;;;;;;20.63;32.25;101920.66;107357;1256;66937;-84
2023/05/28 08:11:49;;;;;;;;;;;;;;;20.69;32.28;101916.39;107318;1260;124642;-84
2023/05/28 08:14:16;;;;;;;;;;;;;;;20.74;32.06;101910.33;107395;1256;59887;-84
2023/05/28 08:16:50;;;;;;;;;;;;;;;20.77;32.09;101911.77;107333;1257;124088;-85
2023/05/28 08:19:17;;;;;;;;;;;;;;;20.82;32.21;101907.49;107352;1256;73389;-84
2023/05/28 08:21:53;;;;;;;;;;;;;;;20.87;32.23;101904.45;107516;1256;124946;-84
2023/05/28 08:24:28;;;;;;;;;;;;;;;20.92;32.10;101903.39;107375;1256;72472;-83
2023/05/28 08:26:55;;;;;;;;;;;;;;;20.95;32.05;101903.93;107624;1261;60397;-83
2023/05/28 08:29:22;;;;;;;;;;;;;;;20.99;32.11;101900.71;107288;1258;124448;-84
2023/05/28 08:31:49;;;;;;;;;;;;;;;21.03;31.89;101904.66;107702;1256;75243;-84
2023/05/28 08:34:31;;;;;;;;;;;;;;;21.04;31.65;101901.08;107393;1261;124817;-84
2023/05/28 08:36:59;;;;;;;;;;;;;;;21.06;31.52;101894.29;107254;1263;71336;-83
2023/05/28 08:39:44;;;;;;;;;;;;;;;21.04;31.40;101893.23;107504;1261;61249;-83
2023/05/28 08:42:11;;;;;;;;;;;;;;;21.04;31.25;101893.58;107464;1262;60470;-84
2023/05/28 08:44:39;;;;;;;;;;;;;;;21.04;31.30;101891.80;107598;1258;73381;-84
2023/05/28 08:47:08;;;;;;;;;;;;;;;21.04;31.37;101887.52;107277;1256;124155;-84
2023/05/28 08:49:38;;;;;;;;;;;;;;;21.07;31.34;101887.52;107627;1256;72709;-84
2023/05/28 08:52:05;;;;;;;;;;;;;;;21.12;31.43;101886.45;107431;1256;124542;-84
2023/05/28 08:54:32;;;;;;;;;;;;;;;21.16;31.22;101882.32;107187;1256;59890;-84
2023/05/28 08:57:03;;;;;;;;;;;;;;;21.17;31.05;101876.08;107388;1256;73879;-85
2023/05/28 08:59:36;;;;;;;;;;;;;;;21.15;31.09;101874.65;107756;1256;124104;-85
2023/05/28 09:02:03;;;;;;;;;;;;;;;21.20;31.33;101873.23;107579;1256;72635;-84
2023/05/28 09:04:30;;;;;;;;;;;;;;;21.24;31.45;101875.89;107242;1256;125088;-84
2023/05/28 09:07:25;;;;;;;;;;;;;;;21.29;31.45;101869.46;108000;1256;61046;-84
2023/05/28 09:09:53;;;;;;;;;;;;;;;21.31;31.20;101858.73;107193;1257;124495;-85
2023/05/28 09:12:21;;;;;;;;;;;;;;;21.32;31.13;101860.89;107279;1256;67110;-84
2023/05/28 09:14:53;;;;;;;;;;;;;;;21.30;31.15;101860.17;107487;1257;71501;-84
2023/05/28 09:17:35;;;;;;;;;;;;;;;21.33;31.02;101857.14;107292;1256;124132;-84
2023/05/28 09:20:31;;;;;;;;;;;;;;;21.33;30.79;101852.67;107548;1256;60195;-85
2023/05/28 09:23:21;;;;;;;;;;;;;;;21.34;30.65;101851.95;107153;1256;124586;-84
2023/05/28 09:26:41;;;;;;;;;;;;;;;21.33;30.81;101849.63;107708;1256;65681;-84
2023/05/28 09:28:53;;;;;;;;;;;;;;;21.39;31.09;101850.88;107118;1259;124510;-84
2023/05/28 09:31:20;;;;;;;;;;;;;;;21.45;30.97;101847.67;107382;1256;62171;-84
2023/05/28 09:33:47;;;;;;;;;;;;;;;21.41;30.43;101850.16;107432;1256;61240;-84
2023/05/28 09:36:17;;;;;;;;;;;;;;;21.34;30.41;101845.89;107566;1260;74780;-84
2023/05/28 09:38:50;;;;;;;;;;;;;;;21.32;30.53;101840.89;107260;1263;67180;-84
2023/05/28 09:41:40;;;;;;;;;;;;;;;21.33;30.50;101838.92;107079;1261;323050;-84
2023/05/28 09:44:36;;;;;;;;;;;;;;;21.35;30.56;101837.85;106854;1262;59456;-84
2023/05/28 09:47:15;;;;;;;;;;;;;;;21.39;30.69;101835.34;107022;1262;124961;-83
2023/05/28 09:49:44;;;;;;;;;;;;;;;21.42;30.83;101832.83;107045;1263;73401;-83
2023/05/28 09:52:23;;;;;;;;;;;;;;;21.47;30.76;101827.13;106947;1262;124483;-83
2023/05/28 09:54:53;;;;;;;;;;;;;;;21.51;30.75;101823.19;107260;1262;72294;-84
2023/05/28 09:57:25;;;;;;;;;;;;;;;21.55;30.93;101822.46;107172;1262;61233;-84
2023/05/28 10:00:22;;;;;;;;;;;;;;;21.59;30.59;101822.45;107129;1267;125096;-84
2023/05/28 10:03:22;;;;;;;;;;;;;;;21.62;30.58;101822.80;107117;1262;74488;-84
2023/05/28 10:06:02;;;;;;;;;;;;;;;21.65;30.52;101818.33;107305;1262;124228;-84
2023/05/28 10:08:31;;;;;;;;;;;;;;;21.65;30.40;101816.54;107247;1262;72740;-84
2023/05/28 10:11:24;;;;;;;;;;;;;;;21.61;30.26;101816.73;107047;1262;125899;-84
2023/05/28 10:13:57;;;;;;;;;;;;;;;21.64;30.43;101818.69;107099;1262;60959;-84
2023/05/28 10:16:34;;;;;;;;;;;;;;;21.63;30.22;101819.77;107189;1259;124656;-84
2023/05/28 10:19:24;;;;;;;;;;;;;;;21.63;30.44;101817.97;107594;1256;65817;-84
2023/05/28 10:21:56;;;;;;;;;;;;;;;21.66;30.26;101815.27;107339;1256;72385;-84
2023/05/28 10:24:50;;;;;;;;;;;;;;;21.62;30.17;101812.62;107618;1256;60884;-84
2023/05/28 10:27:20;;;;;;;;;;;;;;;21.61;30.17;101810.12;107650;1260;61925;-84
2023/05/28 10:30:00;;;;;;;;;;;;;;;21.65;30.50;101814.22;107347;1256;124876;-84
2023/05/28 10:32:43;;;;;;;;;;;;;;;21.71;30.44;101805.98;107451;1263;69142;-84
2023/05/28 10:35:15;;;;;;;;;;;;;;;21.71;30.02;101799.55;107328;1262;124534;-84
2023/05/28 10:37:47;;;;;;;;;;;;;;;21.68;30.27;101802.77;107419;1259;61370;-84
2023/05/28 10:40:33;;;;;;;;;;;;;;;21.69;30.34;101796.86;107320;1258;59955;-84
2023/05/28 10:43:19;;;;;;;;;;;;;;;21.74;30.41;101793.09;107471;1256;74555;-84
2023/05/28 10:46:03;;;;;;;;;;;;;;;21.75;30.02;101790.77;107355;1256;68247;-85
2023/05/28 10:48:37;;;;;;;;;;;;;;;21.70;30.17;101792.93;107055;1263;124371;-84
2023/05/28 10:51:15;;;;;;;;;;;;;;;21.74;30.31;101790.23;107525;1256;61274;-84
2023/05/28 10:53:46;;;;;;;;;;;;;;;21.77;30.07;101788.44;107121;1262;124303;-84
2023/05/28 10:56:33;;;;;;;;;;;;;;;21.80;30.15;101782.71;107634;1256;74461;-84
2023/05/28 10:59:23;;;;;;;;;;;;;;;21.84;30.04;101784.46;107446;1256;124786;-84
2023/05/28 11:02:02;;;;;;;;;;;;;;;21.84;29.90;101783.94;107246;1263;74232;-84
2023/05/28 11:08:00;;;;;;;;;;;;;;;21.82;29.96;101779.48;107868;1254;79131;-82
2023/05/28 11:10:40;;;;;;;;;;;;;;;21.86;30.30;101780.52;107274;1260;75937;-82
2023/05/28 11:13:25;;;;;;;;;;;;;;;21.91;30.22;101783.19;107097;1260;67390;-82
2023/05/28 11:16:05;;;;;;;;;;;;;;;21.96;30.42;101780.11;107168;1262;74476;-82
2023/05/28 11:18:39;;;;;;;;;;;;;;;22.00;30.05;101778.66;108453;1264;124664;-82
2023/05/28 11:21:32;;;;;;;;;;;;;;;22.04;30.35;101775.06;108523;1260;59414;-82
2023/05/28 11:24:04;;;;;;;;;;;;;;;22.13;30.27;101773.04;108428;1260;124194;-82
2023/05/28 11:26:32;;;;;;;;;;;;;;;22.21;30.14;101769.23;108494;1264;67053;-82
2023/05/28 11:29:04;;;;;;;;;;;;;;;22.26;30.23;101767.97;108360;1260;124237;-82
2023/05/28 11:32:09;;;;;;;;;;;;;;;;;;;;;
2023/05/28 11:37:48;;;;;;;;;;;;;;;22.47;30.20;101762.45;108500;1264;74890;-82
2023/05/28 11:40:47;;;;;;;;;;;;;;;22.49;29.95;101762.96;108515;1260;67790;-82
2023/05/28 11:44:03;;;;;;;;;;;;;;;22.48;29.40;101765.30;108562;1276;73610;-82
2023/05/28 11:50:36;;;;;;;;;;;;;;;22.33;29.33;101752.73;108578;1263;60673;-82
2023/05/28 11:53:23;;;;;;;;;;;;;;;22.41;29.77;101751.59;108531;1262;74861;-82
2023/05/28 11:56:18;;;;;;;;;;;;;;;22.51;29.93;101752.05;108580;1261;65829;-82
2023/05/28 11:59:10;;;;;;;;;;;;;;;22.61;30.18;101750.70;108592;1260;72142;-83
2023/05/28 12:02:15;;;;;;;;;;;;;;;22.70;29.97;101741.13;108468;1261;59295;-83
2023/05/28 12:05:02;;;;;;;;;;;;;;;22.70;29.44;101741.31;108626;1261;59942;-82
2023/05/28 12:07:31;;;;;;;;;;;;;;;22.65;29.19;101738.68;108588;1261;73080;-82
2023/05/28 12:10:07;;;;;;;;;;;;;;;22.61;29.04;101735.85;108527;1260;66656;-82
2023/05/28 12:13:09;;;;;;;;;;;;;;;22.63;29.24;101727.42;108376;1262;124088;-82
2023/05/28 12:16:39;;;;;;;;;;;;;;;;;;;;;
2023/05/28 12:22:44;;;;;;;;;;;;;;;22.74;29.90;101712.11;108687;1259;75334;-82
2023/05/28 12:25:22;;;;;;;;;;;;;;;22.83;29.73;101713.98;108484;1275;124515;-81
2023/05/28 12:32:11;;;;;;;;;;;;;;;22.99;29.76;101706.85;108308;1261;59297;-83
2023/05/28 12:34:47;;;;;;;;;;;;;;;23.04;29.93;101702.69;108315;1260;59930;-82
2023/05/28 12:40:45;;;;;;;;;;;;;;;23.15;29.27;101694.52;108435;1261;65847;-82
2023/05/28 12:46:56;;;;;;;;;;;;;;;23.14;29.04;101687.16;108172;1265;59169;-82
2023/05/28 12:49:56;;;;;;;;;;;;;;;23.15;29.30;101689.48;108253;1265;59457;-82
2023/05/28 12:59:20;;;;;;;;;;;;;;;23.15;29.00;101685.91;106739;1279;73084;-82
2023/05/28 13:04:48;;;;;;;;;;;;;;;23.27;28.84;101684.15;104842;1262;60035;-82
2023/05/28 13:07:25;;;;;;;;;;;;;;;;;;;;;
2023/05/28 13:10:39;;;;;;;;;;;;;;;23.30;28.62;101680.88;108266;1265;67112;-83
2023/05/28 13:13:06;;;;;;;;;;;;;;;23.33;28.52;101673.52;107532;1271;126148;-83
2023/05/28 13:15:40;;;;;;;;;;;;;;;23.33;28.34;101678.34;107619;1271;59020;-82
2023/05/28 13:18:09;;;;;;;;;;;;;;;23.33;28.38;101674.58;107837;1265;124798;-83
2023/05/28 13:20:49;;;;;;;;;;;;;;;23.33;28.26;101674.23;108225;1265;73801;-83
2023/05/28 13:23:34;;;;;;;;;;;;;;;23.34;28.23;101665.26;108061;1265;67962;-82
2023/05/28 13:26:47;;;;;;;;;;;;;;;23.33;28.43;101658.45;108136;1273;71803;-82
2023/05/28 13:29:32;;;;;;;;;;;;;;;23.37;28.55;101658.77;108236;1265;59171;-83
2023/05/28 13:32:10;;;;;;;;;;;;;;;23.38;28.31;101659.65;108116;1265;124116;-83
2023/05/28 13:35:24;;;;;;;;;;;;;;;23.38;28.30;101664.31;108094;1265;74854;-82
2023/05/28 13:38:00;;;;;;;;;;;;;;;23.16;29.95;101665.48;107303;1265;124734;-82
2023/05/28 13:40:48;;;;;;;;;;;;;;;22.80;30.74;101666.77;108088;1271;72498;-83